sensor_id;sensor_type;location;lat;lon;timestamp;temperature;humidity
22635;DHT22;11484;50.858;4.384;2024-03-07T00:02:15;8.60;99.90
22635;DHT22;11484;50.858;4.384;2024-03-07T00:04:43;8.70;99.90
22635;DHT22;11484;50.858;4.384;2024-03-07T00:07:09;8.70;99.90
22635;DHT22;11484;50.858;4.384;2024-03-07T00:09:35;8.70;99.90
22635;DHT22;11484;50.858;4.384;2024-03-07T00:12:02;8.70;99.90
22635;DHT22;11484;50.858;4.384;2024-03-07T00:14:28;8.70;99.90
22635;DHT22;11484;50.858;4.384;2024-03-07T00:16:54;8.70;99.90
22635;DHT22;11484;50.858;4.384;2024-03-07T00:19:20;8.60;99.90
22635;DHT22;11484;50.858;4.384;2024-03-07T00:21:47;8.50;99.90
22635;DHT22;11484;50.858;4.384;2024-03-07T00:24:12;8.30;99.90
22635;DHT22;11484;50.858;4.384;2024-03-07T00:26:39;8.20;99.90
22635;DHT22;11484;50.858;4.384;2024-03-07T00:29:08;8.10;99.90
22635;DHT22;11484;50.858;4.384;2024-03-07T00:31:34;8.10;99.90
22635;DHT22;11484;50.858;4.384;2024-03-07T00:33:59;8.10;99.90
22635;DHT22;11484;50.858;4.384;2024-03-07T00:36:25;8.20;99.90
22635;DHT22;11484;50.858;4.384;2024-03-07T00:38:51;8.10;99.90
22635;DHT22;11484;50.858;4.384;2024-03-07T00:41:17;7.90;99.90
22635;DHT22;11484;50.858;4.384;2024-03-07T00:43:43;7.70;99.90
22635;DHT22;11484;50.858;4.384;2024-03-07T00:46:09;7.60;99.90
22635;DHT22;11484;50.858;4.384;2024-03-07T00:48:36;7.60;99.90
22635;DHT22;11484;50.858;4.384;2024-03-07T00:51:03;7.70;99.90
22635;DHT22;11484;50.858;4.384;2024-03-07T00:53:30;7.60;99.90
22635;DHT22;11484;50.858;4.384;2024-03-07T00:55:56;7.50;99.90
22635;DHT22;11484;50.858;4.384;2024-03-07T00:58:22;7.40;99.90
22635;DHT22;11484;50.858;4.384;2024-03-07T01:00:48;7.40;99.90
22635;DHT22;11484;50.858;4.384;2024-03-07T01:03:13;7.30;99.90
22635;DHT22;11484;50.858;4.384;2024-03-07T01:05:43;7.40;99.90
22635;DHT22;11484;50.858;4.384;2024-03-07T01:08:08;7.50;99.90
22635;DHT22;11484;50.858;4.384;2024-03-07T01:10:34;7.60;99.90
22635;DHT22;11484;50.858;4.384;2024-03-07T01:13:00;7.80;99.90
22635;DHT22;11484;50.858;4.384;2024-03-07T01:15:28;7.90;99.90
22635;DHT22;11484;50.858;4.384;2024-03-07T01:17:54;7.90;99.90
22635;DHT22;11484;50.858;4.384;2024-03-07T01:20:19;7.90;99.90
22635;DHT22;11484;50.858;4.384;2024-03-07T01:22:45;7.80;99.90
22635;DHT22;11484;50.858;4.384;2024-03-07T01:25:11;7.80;99.90
22635;DHT22;11484;50.858;4.384;2024-03-07T01:27:38;7.80;99.90
22635;DHT22;11484;50.858;4.384;2024-03-07T01:30:04;7.90;99.90
22635;DHT22;11484;50.858;4.384;2024-03-07T01:32:33;7.80;99.90
22635;DHT22;11484;50.858;4.384;2024-03-07T01:34:59;7.80;99.90
22635;DHT22;11484;50.858;4.384;2024-03-07T01:37:25;7.80;99.90
22635;DHT22;11484;50.858;4.384;2024-03-07T01:39:50;7.80;99.90
22635;DHT22;11484;50.858;4.384;2024-03-07T01:42:16;7.70;99.90
22635;DHT22;11484;50.858;4.384;2024-03-07T01:44:42;7.60;99.90
22635;DHT22;11484;50.858;4.384;2024-03-07T01:47:09;7.50;99.90
22635;DHT22;11484;50.858;4.384;2024-03-07T01:49:36;7.50;99.90
22635;DHT22;11484;50.858;4.384;2024-03-07T01:52:04;7.50;99.90
22635;DHT22;11484;50.858;4.384;2024-03-07T01:54:34;7.50;99.90
22635;DHT22;11484;50.858;4.384;2024-03-07T01:57:01;7.50;99.90
22635;DHT22;11484;50.858;4.384;2024-03-07T01:59:28;7.50;99.90
22635;DHT22;11484;50.858;4.384;2024-03-07T02:01:56;7.50;99.90
22635;DHT22;11484;50.858;4.384;2024-03-07T02:04:22;7.50;99.90
22635;DHT22;11484;50.858;4.384;2024-03-07T02:06:50;7.50;99.90
22635;DHT22;11484;50.858;4.384;2024-03-07T02:09:16;7.40;99.90
22635;DHT22;11484;50.858;4.384;2024-03-07T02:11:42;7.40;99.90
22635;DHT22;11484;50.858;4.384;2024-03-07T02:14:08;7.40;99.90
22635;DHT22;11484;50.858;4.384;2024-03-07T02:16:34;7.40;99.90
22635;DHT22;11484;50.858;4.384;2024-03-07T02:19:00;7.30;99.90
22635;DHT22;11484;50.858;4.384;2024-03-07T02:21:26;7.10;99.90
22635;DHT22;11484;50.858;4.384;2024-03-07T02:23:52;7.00;99.90
22635;DHT22;11484;50.858;4.384;2024-03-07T02:26:19;6.90;99.90
22635;DHT22;11484;50.858;4.384;2024-03-07T02:28:44;6.90;99.90
22635;DHT22;11484;50.858;4.384;2024-03-07T02:31:10;6.90;99.90
22635;DHT22;11484;50.858;4.384;2024-03-07T02:33:36;6.90;99.90
22635;DHT22;11484;50.858;4.384;2024-03-07T02:36:01;6.80;99.90
22635;DHT22;11484;50.858;4.384;2024-03-07T02:38:28;6.80;99.90
22635;DHT22;11484;50.858;4.384;2024-03-07T02:40:54;6.80;99.90
22635;DHT22;11484;50.858;4.384;2024-03-07T02:43:20;6.80;99.90
22635;DHT22;11484;50.858;4.384;2024-03-07T02:45:46;6.70;99.90
22635;DHT22;11484;50.858;4.384;2024-03-07T02:48:12;6.70;99.90
22635;DHT22;11484;50.858;4.384;2024-03-07T02:50:38;6.70;99.90
22635;DHT22;11484;50.858;4.384;2024-03-07T02:53:06;6.70;99.90
22635;DHT22;11484;50.858;4.384;2024-03-07T02:55:32;6.70;99.90
22635;DHT22;11484;50.858;4.384;2024-03-07T02:57:58;6.60;99.90
22635;DHT22;11484;50.858;4.384;2024-03-07T03:00:25;6.60;99.90
22635;DHT22;11484;50.858;4.384;2024-03-07T03:02:55;6.70;99.90
22635;DHT22;11484;50.858;4.384;2024-03-07T03:05:22;6.60;99.90
22635;DHT22;11484;50.858;4.384;2024-03-07T03:07:48;6.60;99.90
22635;DHT22;11484;50.858;4.384;2024-03-07T03:10:23;6.60;99.90
22635;DHT22;11484;50.858;4.384;2024-03-07T03:12:58;6.50;99.90
22635;DHT22;11484;50.858;4.384;2024-03-07T03:15:24;6.50;99.90
22635;DHT22;11484;50.858;4.384;2024-03-07T03:17:50;6.50;99.90
22635;DHT22;11484;50.858;4.384;2024-03-07T03:20:17;6.40;99.90
22635;DHT22;11484;50.858;4.384;2024-03-07T03:22:59;6.40;99.90
22635;DHT22;11484;50.858;4.384;2024-03-07T03:25:26;6.30;99.90
22635;DHT22;11484;50.858;4.384;2024-03-07T03:27:52;6.30;99.90
22635;DHT22;11484;50.858;4.384;2024-03-07T03:30:18;6.30;99.90
22635;DHT22;11484;50.858;4.384;2024-03-07T03:32:47;6.30;99.90
22635;DHT22;11484;50.858;4.384;2024-03-07T03:35:16;6.40;99.90
22635;DHT22;11484;50.858;4.384;2024-03-07T03:37:45;6.40;99.90
22635;DHT22;11484;50.858;4.384;2024-03-07T03:40:12;6.40;99.90
22635;DHT22;11484;50.858;4.384;2024-03-07T03:42:41;6.40;99.90
22635;DHT22;11484;50.858;4.384;2024-03-07T03:45:08;6.50;99.90
22635;DHT22;11484;50.858;4.384;2024-03-07T03:47:37;6.50;99.90
22635;DHT22;11484;50.858;4.384;2024-03-07T03:50:08;6.50;99.90
22635;DHT22;11484;50.858;4.384;2024-03-07T03:52:34;6.40;99.90
22635;DHT22;11484;50.858;4.384;2024-03-07T03:55:03;6.30;99.90
22635;DHT22;11484;50.858;4.384;2024-03-07T03:57:32;6.30;99.90
22635;DHT22;11484;50.858;4.384;2024-03-07T03:59:59;6.30;99.90
22635;DHT22;11484;50.858;4.384;2024-03-07T04:02:25;6.20;99.90
22635;DHT22;11484;50.858;4.384;2024-03-07T04:04:51;6.30;99.90
22635;DHT22;11484;50.858;4.384;2024-03-07T04:07:18;6.30;99.90
22635;DHT22;11484;50.858;4.384;2024-03-07T04:09:45;6.20;99.90
22635;DHT22;11484;50.858;4.384;2024-03-07T04:12:11;6.20;99.90
22635;DHT22;11484;50.858;4.384;2024-03-07T04:14:40;6.30;99.90
22635;DHT22;11484;50.858;4.384;2024-03-07T04:17:10;6.40;99.90
22635;DHT22;11484;50.858;4.384;2024-03-07T04:19:43;6.60;99.90
22635;DHT22;11484;50.858;4.384;2024-03-07T04:22:09;6.50;99.90
22635;DHT22;11484;50.858;4.384;2024-03-07T04:24:35;6.50;99.90
22635;DHT22;11484;50.858;4.384;2024-03-07T04:27:02;6.40;99.90
22635;DHT22;11484;50.858;4.384;2024-03-07T04:29:32;6.20;99.90
22635;DHT22;11484;50.858;4.384;2024-03-07T04:31:58;6.10;99.90
22635;DHT22;11484;50.858;4.384;2024-03-07T04:34:24;6.00;99.90
22635;DHT22;11484;50.858;4.384;2024-03-07T04:36:50;5.90;99.90
22635;DHT22;11484;50.858;4.384;2024-03-07T04:39:16;5.80;99.90
22635;DHT22;11484;50.858;4.384;2024-03-07T04:41:54;5.70;99.90
22635;DHT22;11484;50.858;4.384;2024-03-07T04:44:20;5.60;99.90
22635;DHT22;11484;50.858;4.384;2024-03-07T04:46:48;5.60;99.90
22635;DHT22;11484;50.858;4.384;2024-03-07T04:49:15;5.70;99.90
22635;DHT22;11484;50.858;4.384;2024-03-07T04:51:41;5.70;99.90
22635;DHT22;11484;50.858;4.384;2024-03-07T04:54:06;5.60;99.90
22635;DHT22;11484;50.858;4.384;2024-03-07T04:56:32;5.60;99.90
22635;DHT22;11484;50.858;4.384;2024-03-07T04:58:58;5.60;99.90
22635;DHT22;11484;50.858;4.384;2024-03-07T05:01:23;5.80;99.90
22635;DHT22;11484;50.858;4.384;2024-03-07T05:03:50;5.80;99.90
22635;DHT22;11484;50.858;4.384;2024-03-07T05:06:18;5.80;99.90
22635;DHT22;11484;50.858;4.384;2024-03-07T05:08:44;5.70;99.90
22635;DHT22;11484;50.858;4.384;2024-03-07T05:11:09;5.70;99.90
22635;DHT22;11484;50.858;4.384;2024-03-07T05:13:36;5.60;99.90
22635;DHT22;11484;50.858;4.384;2024-03-07T05:16:02;5.50;99.90
22635;DHT22;11484;50.858;4.384;2024-03-07T05:18:28;5.50;99.90
22635;DHT22;11484;50.858;4.384;2024-03-07T05:20:54;5.50;99.90
22635;DHT22;11484;50.858;4.384;2024-03-07T05:23:20;5.50;99.90
22635;DHT22;11484;50.858;4.384;2024-03-07T05:25:46;5.50;99.90
22635;DHT22;11484;50.858;4.384;2024-03-07T05:28:12;5.40;99.90
22635;DHT22;11484;50.858;4.384;2024-03-07T05:30:37;5.50;99.90
22635;DHT22;11484;50.858;4.384;2024-03-07T05:33:03;5.70;99.90
22635;DHT22;11484;50.858;4.384;2024-03-07T05:35:29;5.50;99.90
22635;DHT22;11484;50.858;4.384;2024-03-07T05:37:56;5.60;99.90
22635;DHT22;11484;50.858;4.384;2024-03-07T05:40:22;5.50;99.90
22635;DHT22;11484;50.858;4.384;2024-03-07T05:42:48;5.40;99.90
22635;DHT22;11484;50.858;4.384;2024-03-07T05:45:14;5.40;99.90
22635;DHT22;11484;50.858;4.384;2024-03-07T05:47:43;5.40;99.90
22635;DHT22;11484;50.858;4.384;2024-03-07T05:50:09;5.30;99.90
22635;DHT22;11484;50.858;4.384;2024-03-07T05:52:35;5.30;99.90
22635;DHT22;11484;50.858;4.384;2024-03-07T05:55:00;5.30;99.90
22635;DHT22;11484;50.858;4.384;2024-03-07T05:57:26;5.30;99.90
22635;DHT22;11484;50.858;4.384;2024-03-07T05:59:52;5.30;99.90
22635;DHT22;11484;50.858;4.384;2024-03-07T06:02:17;5.40;99.90
22635;DHT22;11484;50.858;4.384;2024-03-07T06:04:44;5.30;99.90
22635;DHT22;11484;50.858;4.384;2024-03-07T06:07:11;5.30;99.90
22635;DHT22;11484;50.858;4.384;2024-03-07T06:09:38;5.20;99.90
22635;DHT22;11484;50.858;4.384;2024-03-07T06:12:04;5.20;99.90
22635;DHT22;11484;50.858;4.384;2024-03-07T06:14:32;5.30;99.90
22635;DHT22;11484;50.858;4.384;2024-03-07T06:16:58;5.20;99.90
22635;DHT22;11484;50.858;4.384;2024-03-07T06:19:24;5.20;99.90
22635;DHT22;11484;50.858;4.384;2024-03-07T06:21:50;5.30;99.90
22635;DHT22;11484;50.858;4.384;2024-03-07T06:24:17;5.30;99.90
22635;DHT22;11484;50.858;4.384;2024-03-07T06:26:44;5.30;99.90
22635;DHT22;11484;50.858;4.384;2024-03-07T06:29:14;5.40;99.90
22635;DHT22;11484;50.858;4.384;2024-03-07T06:31:41;5.50;99.90
22635;DHT22;11484;50.858;4.384;2024-03-07T06:34:07;5.50;99.90
22635;DHT22;11484;50.858;4.384;2024-03-07T06:36:36;5.60;99.90
22635;DHT22;11484;50.858;4.384;2024-03-07T06:39:02;5.50;99.90
22635;DHT22;11484;50.858;4.384;2024-03-07T06:41:34;5.50;99.90
22635;DHT22;11484;50.858;4.384;2024-03-07T06:44:01;5.40;99.90
22635;DHT22;11484;50.858;4.384;2024-03-07T06:46:26;5.40;99.90
22635;DHT22;11484;50.858;4.384;2024-03-07T06:48:52;5.50;99.90
22635;DHT22;11484;50.858;4.384;2024-03-07T06:51:18;5.60;99.90
22635;DHT22;11484;50.858;4.384;2024-03-07T06:53:44;5.80;99.90
22635;DHT22;11484;50.858;4.384;2024-03-07T06:56:12;5.90;99.90
22635;DHT22;11484;50.858;4.384;2024-03-07T06:58:39;5.70;99.90
22635;DHT22;11484;50.858;4.384;2024-03-07T07:01:05;5.80;99.90
22635;DHT22;11484;50.858;4.384;2024-03-07T07:03:35;5.80;99.90
22635;DHT22;11484;50.858;4.384;2024-03-07T07:06:01;5.70;99.90
22635;DHT22;11484;50.858;4.384;2024-03-07T07:08:29;5.70;99.90
22635;DHT22;11484;50.858;4.384;2024-03-07T07:10:55;5.70;99.90
22635;DHT22;11484;50.858;4.384;2024-03-07T07:13:22;5.90;99.90
22635;DHT22;11484;50.858;4.384;2024-03-07T07:15:50;6.10;99.90
22635;DHT22;11484;50.858;4.384;2024-03-07T07:18:15;6.20;99.90
22635;DHT22;11484;50.858;4.384;2024-03-07T07:20:41;6.10;99.90
22635;DHT22;11484;50.858;4.384;2024-03-07T07:23:07;5.90;99.90
22635;DHT22;11484;50.858;4.384;2024-03-07T07:25:33;5.70;99.90
22635;DHT22;11484;50.858;4.384;2024-03-07T07:27:59;5.70;99.90
22635;DHT22;11484;50.858;4.384;2024-03-07T07:30:25;5.80;99.90
22635;DHT22;11484;50.858;4.384;2024-03-07T07:32:54;6.00;99.90
22635;DHT22;11484;50.858;4.384;2024-03-07T07:35:20;6.00;99.90
22635;DHT22;11484;50.858;4.384;2024-03-07T07:37:47;5.80;99.90
22635;DHT22;11484;50.858;4.384;2024-03-07T07:40:17;5.70;99.90
22635;DHT22;11484;50.858;4.384;2024-03-07T07:42:50;5.90;99.90
22635;DHT22;11484;50.858;4.384;2024-03-07T07:45:18;5.80;99.90
22635;DHT22;11484;50.858;4.384;2024-03-07T07:47:51;5.70;99.90
22635;DHT22;11484;50.858;4.384;2024-03-07T07:50:19;5.60;99.90
22635;DHT22;11484;50.858;4.384;2024-03-07T07:52:55;5.60;99.90
22635;DHT22;11484;50.858;4.384;2024-03-07T07:55:31;5.60;99.90
22635;DHT22;11484;50.858;4.384;2024-03-07T07:57:58;5.60;99.90
22635;DHT22;11484;50.858;4.384;2024-03-07T08:00:28;5.60;99.90
22635;DHT22;11484;50.858;4.384;2024-03-07T08:03:02;5.50;99.90
22635;DHT22;11484;50.858;4.384;2024-03-07T08:05:33;5.60;99.90
22635;DHT22;11484;50.858;4.384;2024-03-07T08:08:04;5.60;99.90
22635;DHT22;11484;50.858;4.384;2024-03-07T08:10:33;5.60;99.90
22635;DHT22;11484;50.858;4.384;2024-03-07T08:12:59;5.70;99.90
22635;DHT22;11484;50.858;4.384;2024-03-07T08:15:27;5.90;99.90
22635;DHT22;11484;50.858;4.384;2024-03-07T08:17:53;5.80;99.90
22635;DHT22;11484;50.858;4.384;2024-03-07T08:20:21;5.90;99.90
22635;DHT22;11484;50.858;4.384;2024-03-07T08:22:52;6.00;99.90
22635;DHT22;11484;50.858;4.384;2024-03-07T08:25:22;6.10;99.90
22635;DHT22;11484;50.858;4.384;2024-03-07T08:27:49;6.30;99.90
22635;DHT22;11484;50.858;4.384;2024-03-07T08:30:16;6.40;99.90
22635;DHT22;11484;50.858;4.384;2024-03-07T08:32:51;6.40;99.90
22635;DHT22;11484;50.858;4.384;2024-03-07T08:35:18;6.40;99.90
22635;DHT22;11484;50.858;4.384;2024-03-07T08:37:45;6.30;99.90
22635;DHT22;11484;50.858;4.384;2024-03-07T08:40:12;6.10;99.90
22635;DHT22;11484;50.858;4.384;2024-03-07T08:42:48;6.20;99.90
22635;DHT22;11484;50.858;4.384;2024-03-07T08:45:15;6.10;99.90
22635;DHT22;11484;50.858;4.384;2024-03-07T08:47:55;6.10;99.90
22635;DHT22;11484;50.858;4.384;2024-03-07T08:50:21;6.30;99.90
22635;DHT22;11484;50.858;4.384;2024-03-07T08:52:48;6.30;99.90
22635;DHT22;11484;50.858;4.384;2024-03-07T08:55:24;6.20;99.90
22635;DHT22;11484;50.858;4.384;2024-03-07T08:57:53;6.30;99.90
22635;DHT22;11484;50.858;4.384;2024-03-07T09:00:19;6.20;99.90
22635;DHT22;11484;50.858;4.384;2024-03-07T09:02:58;6.30;99.90
22635;DHT22;11484;50.858;4.384;2024-03-07T09:05:25;6.40;99.90
22635;DHT22;11484;50.858;4.384;2024-03-07T09:07:53;6.40;99.90
22635;DHT22;11484;50.858;4.384;2024-03-07T09:10:19;6.60;99.90
22635;DHT22;11484;50.858;4.384;2024-03-07T09:12:46;6.80;99.90
22635;DHT22;11484;50.858;4.384;2024-03-07T09:15:14;7.30;99.90
22635;DHT22;11484;50.858;4.384;2024-03-07T09:17:42;7.80;99.90
22635;DHT22;11484;50.858;4.384;2024-03-07T09:20:08;8.10;99.90
22635;DHT22;11484;50.858;4.384;2024-03-07T09:22:40;7.80;99.90
22635;DHT22;11484;50.858;4.384;2024-03-07T09:25:07;7.50;99.90
22635;DHT22;11484;50.858;4.384;2024-03-07T09:27:33;7.40;99.90
22635;DHT22;11484;50.858;4.384;2024-03-07T09:29:59;7.30;99.90
22635;DHT22;11484;50.858;4.384;2024-03-07T09:32:24;7.30;99.90
22635;DHT22;11484;50.858;4.384;2024-03-07T09:34:50;7.40;99.90
22635;DHT22;11484;50.858;4.384;2024-03-07T09:37:16;7.50;99.90
22635;DHT22;11484;50.858;4.384;2024-03-07T09:39:43;7.50;99.90
22635;DHT22;11484;50.858;4.384;2024-03-07T09:42:09;7.90;99.90
22635;DHT22;11484;50.858;4.384;2024-03-07T09:44:42;8.30;99.90
22635;DHT22;11484;50.858;4.384;2024-03-07T09:47:09;8.50;99.90
22635;DHT22;11484;50.858;4.384;2024-03-07T09:49:36;8.40;99.90
22635;DHT22;11484;50.858;4.384;2024-03-07T09:52:09;8.60;99.90
22635;DHT22;11484;50.858;4.384;2024-03-07T09:54:38;9.00;99.90
22635;DHT22;11484;50.858;4.384;2024-03-07T09:57:06;9.40;99.90
22635;DHT22;11484;50.858;4.384;2024-03-07T09:59:35;9.60;99.90
22635;DHT22;11484;50.858;4.384;2024-03-07T10:02:06;10.10;99.90
22635;DHT22;11484;50.858;4.384;2024-03-07T10:07:01;10.10;99.90
22635;DHT22;11484;50.858;4.384;2024-03-07T10:09:29;10.10;99.90
22635;DHT22;11484;50.858;4.384;2024-03-07T10:11:59;9.70;99.90
22635;DHT22;11484;50.858;4.384;2024-03-07T10:14:25;10.10;99.90
22635;DHT22;11484;50.858;4.384;2024-03-07T10:16:54;10.60;99.90
22635;DHT22;11484;50.858;4.384;2024-03-07T10:19:22;10.60;99.90
22635;DHT22;11484;50.858;4.384;2024-03-07T10:21:48;10.20;99.90
22635;DHT22;11484;50.858;4.384;2024-03-07T10:24:14;9.90;99.90
22635;DHT22;11484;50.858;4.384;2024-03-07T10:26:40;9.90;99.90
22635;DHT22;11484;50.858;4.384;2024-03-07T10:29:09;9.90;99.90
22635;DHT22;11484;50.858;4.384;2024-03-07T10:31:35;10.10;99.90
22635;DHT22;11484;50.858;4.384;2024-03-07T10:34:03;9.90;99.90
22635;DHT22;11484;50.858;4.384;2024-03-07T10:36:32;9.70;99.90
22635;DHT22;11484;50.858;4.384;2024-03-07T10:39:02;9.90;99.90
22635;DHT22;11484;50.858;4.384;2024-03-07T10:41:49;10.10;99.90
22635;DHT22;11484;50.858;4.384;2024-03-07T10:44:25;10.30;99.90
22635;DHT22;11484;50.858;4.384;2024-03-07T10:46:58;10.60;99.90
22635;DHT22;11484;50.858;4.384;2024-03-07T10:49:33;10.40;99.90
22635;DHT22;11484;50.858;4.384;2024-03-07T10:52:12;10.50;99.90
22635;DHT22;11484;50.858;4.384;2024-03-07T10:57:27;10.30;99.90
22635;DHT22;11484;50.858;4.384;2024-03-07T11:00:02;10.30;99.90
22635;DHT22;11484;50.858;4.384;2024-03-07T11:02:50;10.50;99.90
22635;DHT22;11484;50.858;4.384;2024-03-07T11:05:19;10.50;99.90
22635;DHT22;11484;50.858;4.384;2024-03-07T11:07:52;10.60;99.90
22635;DHT22;11484;50.858;4.384;2024-03-07T11:10:19;10.60;99.90
22635;DHT22;11484;50.858;4.384;2024-03-07T11:12:46;10.50;99.90
22635;DHT22;11484;50.858;4.384;2024-03-07T11:15:14;10.40;99.90
22635;DHT22;11484;50.858;4.384;2024-03-07T11:17:45;10.40;99.90
22635;DHT22;11484;50.858;4.384;2024-03-07T11:20:33;10.30;99.90
22635;DHT22;11484;50.858;4.384;2024-03-07T11:22:59;10.10;99.90
22635;DHT22;11484;50.858;4.384;2024-03-07T11:25:27;10.20;99.90
22635;DHT22;11484;50.858;4.384;2024-03-07T11:30:22;10.80;99.90
22635;DHT22;11484;50.858;4.384;2024-03-07T11:32:49;11.00;99.90
22635;DHT22;11484;50.858;4.384;2024-03-07T11:35:22;10.80;99.90
22635;DHT22;11484;50.858;4.384;2024-03-07T11:37:58;10.80;99.90
22635;DHT22;11484;50.858;4.384;2024-03-07T11:42:52;11.60;99.90
22635;DHT22;11484;50.858;4.384;2024-03-07T11:45:19;11.80;99.90
22635;DHT22;11484;50.858;4.384;2024-03-07T11:47:52;11.70;99.90
22635;DHT22;11484;50.858;4.384;2024-03-07T11:50:23;11.80;99.90
22635;DHT22;11484;50.858;4.384;2024-03-07T11:52:54;12.00;99.90
22635;DHT22;11484;50.858;4.384;2024-03-07T11:55:22;12.00;99.90
22635;DHT22;11484;50.858;4.384;2024-03-07T11:57:48;11.90;99.90
22635;DHT22;11484;50.858;4.384;2024-03-07T12:00:17;12.10;99.90
22635;DHT22;11484;50.858;4.384;2024-03-07T12:02:44;12.20;99.90
22635;DHT22;11484;50.858;4.384;2024-03-07T12:05:10;12.40;99.90
22635;DHT22;11484;50.858;4.384;2024-03-07T12:07:36;12.60;99.90
22635;DHT22;11484;50.858;4.384;2024-03-07T12:10:03;12.30;99.90
22635;DHT22;11484;50.858;4.384;2024-03-07T12:12:30;12.20;99.90
22635;DHT22;11484;50.858;4.384;2024-03-07T12:14:58;12.10;99.90
22635;DHT22;11484;50.858;4.384;2024-03-07T12:17:24;12.00;99.90
22635;DHT22;11484;50.858;4.384;2024-03-07T12:19:51;11.90;99.90
22635;DHT22;11484;50.858;4.384;2024-03-07T12:22:19;11.80;99.90
22635;DHT22;11484;50.858;4.384;2024-03-07T12:25:01;11.70;99.90
22635;DHT22;11484;50.858;4.384;2024-03-07T12:27:33;11.80;99.90
22635;DHT22;11484;50.858;4.384;2024-03-07T12:29:59;11.70;99.90
22635;DHT22;11484;50.858;4.384;2024-03-07T12:32:33;11.70;99.90
22635;DHT22;11484;50.858;4.384;2024-03-07T12:34:59;11.50;99.90
22635;DHT22;11484;50.858;4.384;2024-03-07T12:37:25;11.40;99.90
22635;DHT22;11484;50.858;4.384;2024-03-07T12:39:55;11.60;99.90
22635;DHT22;11484;50.858;4.384;2024-03-07T12:42:27;11.60;99.90
22635;DHT22;11484;50.858;4.384;2024-03-07T12:44:57;11.30;99.90
22635;DHT22;11484;50.858;4.384;2024-03-07T12:47:24;11.10;99.90
22635;DHT22;11484;50.858;4.384;2024-03-07T12:49:51;11.00;99.90
22635;DHT22;11484;50.858;4.384;2024-03-07T12:52:17;11.10;99.90
22635;DHT22;11484;50.858;4.384;2024-03-07T12:54:43;11.10;99.90
22635;DHT22;11484;50.858;4.384;2024-03-07T12:57:09;11.20;99.90
22635;DHT22;11484;50.858;4.384;2024-03-07T12:59:37;11.30;99.90
22635;DHT22;11484;50.858;4.384;2024-03-07T13:02:04;11.60;99.90
22635;DHT22;11484;50.858;4.384;2024-03-07T13:04:32;11.90;99.90
22635;DHT22;11484;50.858;4.384;2024-03-07T13:06:58;12.10;99.90
22635;DHT22;11484;50.858;4.384;2024-03-07T13:09:28;12.20;99.90
22635;DHT22;11484;50.858;4.384;2024-03-07T13:11:54;12.10;99.90
22635;DHT22;11484;50.858;4.384;2024-03-07T13:14:20;11.60;99.90
22635;DHT22;11484;50.858;4.384;2024-03-07T13:16:46;11.20;99.90
22635;DHT22;11484;50.858;4.384;2024-03-07T13:19:12;11.20;99.90
22635;DHT22;11484;50.858;4.384;2024-03-07T13:21:38;11.30;99.90
22635;DHT22;11484;50.858;4.384;2024-03-07T13:24:05;11.40;99.90
22635;DHT22;11484;50.858;4.384;2024-03-07T13:26:31;11.10;99.90
22635;DHT22;11484;50.858;4.384;2024-03-07T13:28:57;10.90;99.90
22635;DHT22;11484;50.858;4.384;2024-03-07T13:31:27;10.80;99.90
22635;DHT22;11484;50.858;4.384;2024-03-07T13:33:55;10.90;99.90
22635;DHT22;11484;50.858;4.384;2024-03-07T13:36:21;10.80;99.90
22635;DHT22;11484;50.858;4.384;2024-03-07T13:38:52;10.70;99.90
22635;DHT22;11484;50.858;4.384;2024-03-07T13:41:22;10.70;99.90
22635;DHT22;11484;50.858;4.384;2024-03-07T13:43:48;10.60;99.90
22635;DHT22;11484;50.858;4.384;2024-03-07T13:46:15;10.80;99.90
22635;DHT22;11484;50.858;4.384;2024-03-07T13:48:43;10.70;99.90
22635;DHT22;11484;50.858;4.384;2024-03-07T13:51:09;10.90;99.90
22635;DHT22;11484;50.858;4.384;2024-03-07T13:53:40;10.80;99.90
22635;DHT22;11484;50.858;4.384;2024-03-07T13:59:53;10.60;99.90
22635;DHT22;11484;50.858;4.384;2024-03-07T14:05:57;10.50;99.90
22635;DHT22;11484;50.858;4.384;2024-03-07T14:11:28;10.50;99.90
22635;DHT22;11484;50.858;4.384;2024-03-07T14:20:33;10.70;99.90
22635;DHT22;11484;50.858;4.384;2024-03-07T14:31:39;10.90;99.90
22635;DHT22;11484;50.858;4.384;2024-03-07T14:36:49;10.70;99.90
22635;DHT22;11484;50.858;4.384;2024-03-07T14:39:18;10.70;99.90
22635;DHT22;11484;50.858;4.384;2024-03-07T14:44:23;10.90;99.90
22635;DHT22;11484;50.858;4.384;2024-03-07T14:46:53;10.80;99.90
22635;DHT22;11484;50.858;4.384;2024-03-07T14:49:20;10.90;99.90
22635;DHT22;11484;50.858;4.384;2024-03-07T14:51:46;10.90;99.90
22635;DHT22;11484;50.858;4.384;2024-03-07T14:54:12;10.80;99.90
22635;DHT22;11484;50.858;4.384;2024-03-07T14:56:38;10.70;99.90
22635;DHT22;11484;50.858;4.384;2024-03-07T14:59:04;10.70;99.90
22635;DHT22;11484;50.858;4.384;2024-03-07T15:01:31;10.70;99.90
22635;DHT22;11484;50.858;4.384;2024-03-07T15:04:00;10.80;99.90
22635;DHT22;11484;50.858;4.384;2024-03-07T15:06:26;10.90;99.90
22635;DHT22;11484;50.858;4.384;2024-03-07T15:08:51;10.90;99.90
22635;DHT22;11484;50.858;4.384;2024-03-07T15:13:58;11.00;99.90
22635;DHT22;11484;50.858;4.384;2024-03-07T15:16:25;11.00;99.90
22635;DHT22;11484;50.858;4.384;2024-03-07T15:18:53;10.90;99.90
22635;DHT22;11484;50.858;4.384;2024-03-07T15:21:19;10.50;99.90
22635;DHT22;11484;50.858;4.384;2024-03-07T15:23:46;10.40;99.90
22635;DHT22;11484;50.858;4.384;2024-03-07T15:26:13;10.40;99.90
22635;DHT22;11484;50.858;4.384;2024-03-07T15:28:41;10.40;99.90
22635;DHT22;11484;50.858;4.384;2024-03-07T15:31:06;10.50;99.90
22635;DHT22;11484;50.858;4.384;2024-03-07T15:33:33;10.40;99.90
22635;DHT22;11484;50.858;4.384;2024-03-07T15:35:59;10.40;99.90
22635;DHT22;11484;50.858;4.384;2024-03-07T15:38:24;10.50;99.90
22635;DHT22;11484;50.858;4.384;2024-03-07T15:40:59;10.50;99.90
22635;DHT22;11484;50.858;4.384;2024-03-07T15:43:27;10.50;99.90
22635;DHT22;11484;50.858;4.384;2024-03-07T15:45:54;10.50;99.90
22635;DHT22;11484;50.858;4.384;2024-03-07T15:48:23;10.50;99.90
22635;DHT22;11484;50.858;4.384;2024-03-07T15:50:52;10.60;99.90
22635;DHT22;11484;50.858;4.384;2024-03-07T15:53:19;10.50;99.90
22635;DHT22;11484;50.858;4.384;2024-03-07T15:55:45;10.50;99.90
22635;DHT22;11484;50.858;4.384;2024-03-07T15:58:11;10.50;99.90
22635;DHT22;11484;50.858;4.384;2024-03-07T16:00:38;10.40;99.90
22635;DHT22;11484;50.858;4.384;2024-03-07T16:03:06;10.30;99.90
22635;DHT22;11484;50.858;4.384;2024-03-07T16:05:39;10.30;99.90
22635;DHT22;11484;50.858;4.384;2024-03-07T16:08:09;10.20;99.90
22635;DHT22;11484;50.858;4.384;2024-03-07T16:10:40;10.30;99.90
22635;DHT22;11484;50.858;4.384;2024-03-07T16:13:10;10.30;99.90
22635;DHT22;11484;50.858;4.384;2024-03-07T16:15:44;10.40;99.90
22635;DHT22;11484;50.858;4.384;2024-03-07T16:18:10;10.50;99.90
22635;DHT22;11484;50.858;4.384;2024-03-07T16:20:37;10.50;99.90
22635;DHT22;11484;50.858;4.384;2024-03-07T16:23:03;10.60;99.90
22635;DHT22;11484;50.858;4.384;2024-03-07T16:25:33;10.50;99.90
22635;DHT22;11484;50.858;4.384;2024-03-07T16:27:59;10.40;99.90